sensor_id;sensor_type;location;lat;lon;timestamp;P1;durP1;ratioP1;P2;durP2;ratioP2
31974;SDS011;18500;43.618;1.474;2024-02-21T19:45:11;22.30;;;20.10;;
31974;SDS011;18500;43.618;1.474;2024-02-21T19:47:37;24.40;;;22.27;;
31974;SDS011;18500;43.618;1.474;2024-02-21T19:50:03;26.27;;;23.60;;
31974;SDS011;18500;43.618;1.474;2024-02-21T19:52:29;28.55;;;26.35;;
31974;SDS011;18500;43.618;1.474;2024-02-21T19:54:56;32.03;;;29.02;;
31974;SDS011;18500;43.618;1.474;2024-02-21T19:57:22;31.92;;;29.38;;
31974;SDS011;18500;43.618;1.474;2024-02-21T19:59:48;35.75;;;32.35;;
31974;SDS011;18500;43.618;1.474;2024-02-21T20:02:13;37.95;;;35.08;;
31974;SDS011;18500;43.618;1.474;2024-02-21T20:04:39;39.80;;;36.60;;
31974;SDS011;18500;43.618;1.474;2024-02-21T20:07:05;40.80;;;37.50;;
31974;SDS011;18500;43.618;1.474;2024-02-21T20:09:31;39.45;;;36.28;;
31974;SDS011;18500;43.618;1.474;2024-02-21T20:11:57;35.00;;;32.42;;
31974;SDS011;18500;43.618;1.474;2024-02-21T20:14:23;34.67;;;31.95;;
31974;SDS011;18500;43.618;1.474;2024-02-21T20:16:49;36.85;;;33.78;;
31974;SDS011;18500;43.618;1.474;2024-02-21T20:19:15;38.63;;;35.65;;
31974;SDS011;18500;43.618;1.474;2024-02-21T20:21:41;34.25;;;31.27;;
31974;SDS011;18500;43.618;1.474;2024-02-21T20:24:09;34.65;;;32.25;;
31974;SDS011;18500;43.618;1.474;2024-02-21T20:26:35;32.35;;;30.02;;
31974;SDS011;18500;43.618;1.474;2024-02-21T20:29:01;32.97;;;30.35;;
31974;SDS011;18500;43.618;1.474;2024-02-21T20:31:26;35.10;;;32.55;;
31974;SDS011;18500;43.618;1.474;2024-02-21T20:33:52;35.50;;;32.72;;
31974;SDS011;18500;43.618;1.474;2024-02-21T20:36:18;34.15;;;31.33;;
31974;SDS011;18500;43.618;1.474;2024-02-21T20:38:44;32.00;;;29.65;;
31974;SDS011;18500;43.618;1.474;2024-02-21T20:41:16;32.80;;;30.25;;
31974;SDS011;18500;43.618;1.474;2024-02-21T20:43:43;30.98;;;28.65;;
31974;SDS011;18500;43.618;1.474;2024-02-21T20:46:09;30.17;;;27.60;;
31974;SDS011;18500;43.618;1.474;2024-02-21T20:48:35;30.27;;;28.10;;
31974;SDS011;18500;43.618;1.474;2024-02-21T20:51:00;32.28;;;29.60;;
31974;SDS011;18500;43.618;1.474;2024-02-21T20:53:26;30.92;;;28.15;;
31974;SDS011;18500;43.618;1.474;2024-02-21T20:55:53;33.20;;;30.15;;
31974;SDS011;18500;43.618;1.474;2024-02-21T20:58:19;34.53;;;32.03;;
31974;SDS011;18500;43.618;1.474;2024-02-21T21:00:45;33.53;;;31.25;;
31974;SDS011;18500;43.618;1.474;2024-02-21T21:03:11;36.10;;;33.30;;
31974;SDS011;18500;43.618;1.474;2024-02-21T21:05:36;35.72;;;33.13;;
31974;SDS011;18500;43.618;1.474;2024-02-21T21:08:03;36.00;;;33.33;;
31974;SDS011;18500;43.618;1.474;2024-02-21T21:10:30;35.60;;;32.60;;
31974;SDS011;18500;43.618;1.474;2024-02-21T21:12:56;34.05;;;31.42;;
31974;SDS011;18500;43.618;1.474;2024-02-21T21:15:22;34.97;;;32.38;;
31974;SDS011;18500;43.618;1.474;2024-02-21T21:17:48;35.75;;;32.72;;
31974;SDS011;18500;43.618;1.474;2024-02-21T21:20:17;37.85;;;34.20;;
31974;SDS011;18500;43.618;1.474;2024-02-21T21:22:44;39.30;;;36.30;;
31974;SDS011;18500;43.618;1.474;2024-02-21T21:25:10;36.67;;;34.08;;
31974;SDS011;18500;43.618;1.474;2024-02-21T21:27:35;36.45;;;33.38;;
31974;SDS011;18500;43.618;1.474;2024-02-21T21:30:02;38.95;;;36.25;;
31974;SDS011;18500;43.618;1.474;2024-02-21T21:32:29;34.58;;;31.38;;
31974;SDS011;18500;43.618;1.474;2024-02-21T21:34:55;30.83;;;28.20;;
31974;SDS011;18500;43.618;1.474;2024-02-21T21:37:20;28.90;;;26.73;;
31974;SDS011;18500;43.618;1.474;2024-02-21T21:39:47;37.45;;;32.40;;
31974;SDS011;18500;43.618;1.474;2024-02-21T21:42:19;29.80;;;26.83;;
31974;SDS011;18500;43.618;1.474;2024-02-21T21:44:45;26.45;;;23.40;;
31974;SDS011;18500;43.618;1.474;2024-02-21T21:47:11;26.77;;;23.98;;
31974;SDS011;18500;43.618;1.474;2024-02-21T21:49:36;30.50;;;27.10;;
31974;SDS011;18500;43.618;1.474;2024-02-21T21:52:02;38.97;;;28.42;;
31974;SDS011;18500;43.618;1.474;2024-02-21T21:54:28;51.00;;;28.70;;
31974;SDS011;18500;43.618;1.474;2024-02-21T21:56:53;37.80;;;26.30;;
31974;SDS011;18500;43.618;1.474;2024-02-21T21:59:19;38.85;;;24.98;;
31974;SDS011;18500;43.618;1.474;2024-02-21T22:01:45;22.77;;;20.33;;
31974;SDS011;18500;43.618;1.474;2024-02-21T22:04:10;28.20;;;22.85;;
31974;SDS011;18500;43.618;1.474;2024-02-21T22:06:36;29.40;;;19.95;;
31974;SDS011;18500;43.618;1.474;2024-02-21T22:09:02;41.58;;;23.77;;
31974;SDS011;18500;43.618;1.474;2024-02-21T22:11:27;22.05;;;14.68;;
31974;SDS011;18500;43.618;1.474;2024-02-21T22:13:53;26.98;;;16.05;;
31974;SDS011;18500;43.618;1.474;2024-02-21T22:16:18;19.70;;;13.38;;
31974;SDS011;18500;43.618;1.474;2024-02-21T22:18:44;18.50;;;12.32;;
31974;SDS011;18500;43.618;1.474;2024-02-21T22:21:10;16.70;;;11.13;;
31974;SDS011;18500;43.618;1.474;2024-02-21T22:23:36;15.70;;;9.88;;
31974;SDS011;18500;43.618;1.474;2024-02-21T22:26:01;16.05;;;10.88;;
31974;SDS011;18500;43.618;1.474;2024-02-21T22:28:27;13.40;;;9.48;;
31974;SDS011;18500;43.618;1.474;2024-02-21T22:30:52;14.50;;;9.32;;
31974;SDS011;18500;43.618;1.474;2024-02-21T22:33:18;8.73;;;7.70;;
31974;SDS011;18500;43.618;1.474;2024-02-21T22:35:44;14.20;;;7.07;;
31974;SDS011;18500;43.618;1.474;2024-02-21T22:38:09;12.50;;;7.35;;
31974;SDS011;18500;43.618;1.474;2024-02-21T22:40:35;12.00;;;7.65;;
31974;SDS011;18500;43.618;1.474;2024-02-21T22:43:01;7.55;;;6.53;;
31974;SDS011;18500;43.618;1.474;2024-02-21T22:45:27;10.15;;;7.13;;
31974;SDS011;18500;43.618;1.474;2024-02-21T22:47:52;9.52;;;6.72;;
31974;SDS011;18500;43.618;1.474;2024-02-21T22:50:18;10.82;;;6.65;;
31974;SDS011;18500;43.618;1.474;2024-02-21T22:52:44;10.95;;;7.63;;
31974;SDS011;18500;43.618;1.474;2024-02-21T22:55:10;7.47;;;6.13;;
31974;SDS011;18500;43.618;1.474;2024-02-21T22:57:36;11.10;;;6.90;;
31974;SDS011;18500;43.618;1.474;2024-02-21T23:00:11;15.73;;;7.53;;
31974;SDS011;18500;43.618;1.474;2024-02-21T23:02:40;11.50;;;6.97;;
31974;SDS011;18500;43.618;1.474;2024-02-21T23:05:08;8.50;;;5.85;;
31974;SDS011;18500;43.618;1.474;2024-02-21T23:07:33;7.05;;;5.95;;
31974;SDS011;18500;43.618;1.474;2024-02-21T23:09:59;9.48;;;5.45;;
31974;SDS011;18500;43.618;1.474;2024-02-21T23:12:25;7.95;;;5.20;;
31974;SDS011;18500;43.618;1.474;2024-02-21T23:14:52;8.15;;;4.72;;
31974;SDS011;18500;43.618;1.474;2024-02-21T23:17:18;9.27;;;4.95;;
31974;SDS011;18500;43.618;1.474;2024-02-21T23:19:43;5.47;;;4.93;;
31974;SDS011;18500;43.618;1.474;2024-02-21T23:22:09;6.90;;;5.40;;
